OKBK/KWI METAR and TAF weather

Enter ICAO airport designator
Station Type Date Time Source
OKBK METAR 2022/11/27 07:00 UTC NOAA

OKBK 270700Z 01011KT 7000 NSC 24/13 Q1017 NOSIG


Station Type Date Time Source
OKBK Decoded METAR 2022/11/27 07:00 UTC NOAA

Kuwait Internationalairport, Kuwait (OKBK) 29-13N 047-59E 55M
Nov 27, 2022 - 02:00 AM EST / 2022.11.27 0700 UTC
Wind: from the N (010 degrees) at 13 MPH (11 KT):0
Visibility: 4 mile(s):0
Temperature: 75 F (24 C)
Dew Point: 55 F (13 C)
Relative Humidity: 50%
Pressure (altimeter): 30.03 in. Hg (1017 hPa)
ob: OKBK 270700Z 01011KT 7000 NSC 24/13 Q1017 NOSIG
cycle: 7

Station Type Date Time Source
OKBK TAF 2022/11/27 06:09 UTC NOAA

TAF TAF OKBK 270500Z 2706/2812 35010KT 7000 NSC

Example: see airport list